createdAt,value
2022-11-19T00:01:51.728Z,99725.84
2022-11-19T00:06:48.135Z,99722.69
2022-11-19T00:12:02.737Z,99728.59
2022-11-19T00:16:59.058Z,99731.59
2022-11-19T00:21:55.396Z,99728.13
2022-11-19T00:26:51.735Z,99727.22
2022-11-19T00:31:48.062Z,99736.56
2022-11-19T00:36:44.466Z,99739.53
2022-11-19T00:41:40.807Z,99747.03
2022-11-19T00:46:37.247Z,99750.56
2022-11-19T00:51:33.697Z,99759.47
2022-11-19T00:56:30.956Z,99755.94
2022-11-19T01:01:27.404Z,99766.47
2022-11-19T01:06:25.496Z,99769.22
2022-11-19T01:11:28.309Z,99771.63
2022-11-19T01:16:28.173Z,99773.63
2022-11-19T01:21:28.091Z,99778.63
2022-11-19T01:26:25.232Z,99778.84
2022-11-19T01:31:27.525Z,99771.91
2022-11-19T01:36:26.201Z,99776.38
2022-11-19T01:41:25.478Z,99789.47
2022-11-19T01:46:24.195Z,99779.00
2022-11-19T01:51:29.443Z,99786.84
2022-11-19T01:56:27.059Z,99799.06
2022-11-19T02:01:23.924Z,99798.22
2022-11-19T02:06:20.961Z,99812.22
2022-11-19T02:11:35.523Z,99813.13
2022-11-19T02:16:44.908Z,99819.16
2022-11-19T02:22:01.704Z,99821.56
2022-11-19T02:27:19.536Z,99825.50
2022-11-19T02:32:27.661Z,99815.53
2022-11-19T02:37:30.346Z,99814.81
2022-11-19T02:42:59.086Z,99816.72
2022-11-19T02:48:05.159Z,99821.81
2022-11-19T02:53:04.251Z,99830.72
2022-11-19T02:58:10.851Z,99834.53
2022-11-19T03:03:33.334Z,99839.47
2022-11-19T03:08:29.874Z,99836.94
2022-11-19T03:14:12.556Z,99838.72
2022-11-19T03:19:48.059Z,99840.47
2022-11-19T03:24:50.622Z,99851.97
2022-11-19T03:29:51.038Z,99847.81
2022-11-19T03:34:50.851Z,99854.69
2022-11-19T03:39:50.510Z,99863.97
2022-11-19T03:44:51.812Z,99863.09
2022-11-19T03:49:57.109Z,99856.69
2022-11-19T03:54:53.536Z,99858.03
2022-11-19T03:59:49.948Z,99862.72
2022-11-19T04:04:46.262Z,99864.88
2022-11-19T04:09:43.305Z,99864.88
2022-11-19T04:14:39.675Z,99864.53
2022-11-19T04:19:36.090Z,99863.03
2022-11-19T04:24:32.460Z,99875.63
2022-11-19T04:29:28.796Z,99892.31
2022-11-19T04:34:25.109Z,99889.81
2022-11-19T04:39:21.909Z,99894.47
2022-11-19T04:44:18.389Z,99913.19
2022-11-19T04:49:14.776Z,99914.31
2022-11-19T04:54:11.204Z,99922.34
2022-11-19T04:59:07.803Z,99925.06
2022-11-19T05:04:04.314Z,99921.56
2022-11-19T05:09:00.923Z,99925.34
2022-11-19T05:13:57.321Z,99924.59
2022-11-19T05:18:53.650Z,99933.63
2022-11-19T05:23:50.013Z,99939.97
2022-11-19T05:28:46.367Z,99946.31
2022-11-19T05:33:42.777Z,99947.88
2022-11-19T05:38:40.978Z,99958.75
2022-11-19T05:43:37.362Z,99968.38
2022-11-19T05:48:33.693Z,99973.94
2022-11-19T05:53:30.100Z,99974.78
2022-11-19T05:58:26.440Z,99978.38
2022-11-19T06:03:22.883Z,99973.28
2022-11-19T06:08:19.313Z,99985.72
2022-11-19T06:13:15.737Z,99991.13
2022-11-19T06:18:12.150Z,100000.81
2022-11-19T06:23:08.641Z,100006.03
2022-11-19T06:28:05.289Z,100009.63
2022-11-19T06:33:01.636Z,100018.53
2022-11-19T06:37:57.988Z,100025.91
2022-11-19T06:42:54.396Z,100038.13
2022-11-19T06:47:51.152Z,100032.91
2022-11-19T06:52:47.520Z,100031.31
2022-11-19T06:57:43.952Z,100030.56
2022-11-19T07:02:41.031Z,100036.78
2022-11-19T07:07:37.568Z,100036.00
2022-11-19T07:12:34.027Z,100048.38
2022-11-19T07:17:30.509Z,100052.66
2022-11-19T07:22:27.503Z,100045.56
2022-11-19T07:27:24.148Z,100064.47
2022-11-19T07:32:20.876Z,100071.16
2022-11-19T07:37:17.242Z,100073.69
2022-11-19T07:42:32.298Z,100084.66
2022-11-19T07:47:28.855Z,100082.72
2022-11-19T07:52:25.426Z,100091.97
2022-11-19T07:57:27.221Z,100100.94
2022-11-19T08:02:26.457Z,100112.88
2022-11-19T08:07:23.087Z,100110.00
2022-11-19T08:12:19.848Z,100115.16
2022-11-19T08:17:35.029Z,100120.94
2022-11-19T08:22:31.391Z,100124.88
2022-11-19T08:27:27.730Z,100128.03
2022-11-19T08:32:24.087Z,100110.28
2022-11-19T08:37:20.995Z,100122.50
2022-11-19T08:42:35.916Z,100124.75
2022-11-19T08:47:32.262Z,100129.56
2022-11-19T08:52:28.616Z,100130.22
2022-11-19T08:57:24.949Z,100117.69
2022-11-19T09:02:21.420Z,100135.91
2022-11-19T09:07:18.048Z,100126.53
2022-11-19T09:12:14.416Z,100129.22
2022-11-19T09:17:10.754Z,100137.63
2022-11-19T09:22:07.104Z,100142.78
2022-11-19T09:27:03.860Z,100153.69
2022-11-19T09:32:00.181Z,100153.25
2022-11-19T09:36:58.356Z,100152.06
2022-11-19T09:41:54.761Z,100146.94
2022-11-19T09:47:06.834Z,100156.25
2022-11-19T09:52:14.669Z,100151.69
2022-11-19T09:57:16.438Z,100154.06
2022-11-19T10:02:31.213Z,100155.97
2022-11-19T10:07:43.775Z,100161.38
2022-11-19T10:12:52.302Z,100159.06
2022-11-19T10:18:13.374Z,100159.59
2022-11-19T10:23:28.525Z,100152.25
2022-11-19T10:28:30.189Z,100167.94
2022-11-19T10:33:35.517Z,100169.28
2022-11-19T10:38:51.275Z,100172.69
2022-11-19T10:43:55.565Z,100161.00
2022-11-19T10:48:56.187Z,100165.88
2022-11-19T10:53:55.182Z,100158.69
2022-11-19T10:58:56.450Z,100153.34
2022-11-19T11:04:18.263Z,100157.84
2022-11-19T11:09:28.680Z,100147.34
2022-11-19T11:14:44.079Z,100147.22
2022-11-19T11:19:40.527Z,100143.56
2022-11-19T11:24:38.771Z,100135.06
2022-11-19T11:29:35.239Z,100130.50
2022-11-19T11:34:43.780Z,100127.16
2022-11-19T11:39:44.157Z,100126.66
2022-11-19T11:44:50.970Z,100131.19
2022-11-19T11:49:56.884Z,100122.34
2022-11-19T11:55:06.006Z,100124.97
2022-11-19T12:00:24.617Z,100121.34
2022-11-19T12:05:21.233Z,100118.09
2022-11-19T12:10:26.471Z,100117.94
2022-11-19T12:15:38.251Z,100112.84
2022-11-19T12:20:52.793Z,100115.66
2022-11-19T12:26:17.314Z,100118.69
2022-11-19T12:31:24.222Z,100125.28
2022-11-19T12:36:30.987Z,100120.56
2022-11-19T12:41:45.547Z,100117.19
2022-11-19T12:46:49.924Z,100119.50
2022-11-19T12:52:00.049Z,100116.97
2022-11-19T12:57:14.311Z,100113.13
2022-11-19T13:02:21.483Z,100117.09
2022-11-19T13:07:27.291Z,100117.38
2022-11-19T13:12:32.682Z,100114.69
2022-11-19T13:17:38.001Z,100110.59
2022-11-19T13:22:41.038Z,100106.53
2022-11-19T13:27:37.828Z,100106.03
2022-11-19T13:33:14.484Z,100102.78
2022-11-19T13:38:29.676Z,100100.09
2022-11-19T13:43:44.771Z,100095.84
2022-11-19T13:48:53.867Z,100091.66
2022-11-19T13:53:50.493Z,100090.88
2022-11-19T13:58:49.865Z,100082.53
2022-11-19T14:04:25.143Z,100090.75
2022-11-19T14:09:29.271Z,100086.06
2022-11-19T14:14:53.147Z,100105.63
2022-11-19T14:20:11.732Z,100100.78
2022-11-19T14:25:27.799Z,100097.53
2022-11-19T14:31:00.363Z,100094.19
2022-11-19T14:35:56.901Z,100080.94
2022-11-19T14:41:04.250Z,100087.31
2022-11-19T14:46:09.078Z,100082.47
2022-11-19T14:51:14.753Z,100090.16
2022-11-19T14:56:13.383Z,100084.63
2022-11-19T15:01:20.529Z,100084.91
2022-11-19T15:06:18.960Z,100086.94
2022-11-19T15:11:16.377Z,100085.16
2022-11-19T15:16:21.914Z,100074.50
2022-11-19T15:21:32.690Z,100073.75
2022-11-19T15:26:35.020Z,100071.63
2022-11-19T15:32:13.614Z,100071.13
2022-11-19T15:37:19.960Z,100069.63
2022-11-19T15:42:25.352Z,100070.19
2022-11-19T15:47:28.862Z,100080.84
2022-11-19T15:52:31.882Z,100070.88
2022-11-19T15:57:28.441Z,100068.13
2022-11-19T16:02:37.406Z,100069.75
2022-11-19T16:07:34.279Z,100066.28
2022-11-19T16:12:49.058Z,100061.28
2022-11-19T16:17:48.752Z,100065.38
2022-11-19T16:22:58.326Z,100068.16
2022-11-19T16:27:58.443Z,100081.78
2022-11-19T16:32:59.790Z,100084.19
2022-11-19T16:37:58.413Z,100087.47
2022-11-19T16:42:59.505Z,100084.03
2022-11-19T16:47:57.220Z,100088.66
2022-11-19T16:52:54.576Z,100083.34
2022-11-19T16:57:54.345Z,100089.97
2022-11-19T17:02:51.762Z,100081.78
2022-11-19T17:08:05.841Z,100087.06
2022-11-19T17:13:15.630Z,100078.66
2022-11-19T17:18:15.015Z,100071.91
2022-11-19T17:23:17.032Z,100086.94
2022-11-19T17:28:25.964Z,100085.03
2022-11-19T17:33:24.328Z,100077.47
2022-11-19T17:38:24.396Z,100081.72
2022-11-19T17:43:42.995Z,100088.53
2022-11-19T17:48:41.472Z,100084.34
2022-11-19T17:53:37.880Z,100081.22
2022-11-19T17:58:34.263Z,100086.16
2022-11-19T18:03:30.684Z,100079.59
2022-11-19T18:08:27.056Z,100069.47
2022-11-19T18:13:26.768Z,100086.75
2022-11-19T18:18:23.585Z,100099.44
2022-11-19T18:23:19.988Z,100100.50
2022-11-19T18:28:16.968Z,100109.00
2022-11-19T18:33:13.630Z,100106.34
2022-11-19T18:38:10.049Z,100099.38
2022-11-19T18:43:25.464Z,100104.63
2022-11-19T18:48:22.120Z,100102.66
2022-11-19T18:53:18.579Z,100102.03
2022-11-19T18:58:15.339Z,100105.69
2022-11-19T19:03:13.195Z,100094.13
2022-11-19T19:08:09.586Z,100099.66
2022-11-19T19:13:06.124Z,100092.03
2022-11-19T19:18:07.572Z,100085.88
2022-11-19T19:23:04.453Z,100086.19
2022-11-19T19:28:00.841Z,100082.66
2022-11-19T19:32:57.218Z,100077.09
2022-11-19T19:37:53.603Z,100075.38
2022-11-19T19:42:49.955Z,100078.53
2022-11-19T19:47:46.417Z,100076.75
2022-11-19T19:52:42.769Z,100072.50
2022-11-19T19:57:39.143Z,100072.22
2022-11-19T20:02:35.587Z,100064.72
2022-11-19T20:07:32.007Z,100063.78
2022-11-19T20:12:48.377Z,100056.94
2022-11-19T20:17:44.750Z,100054.16
2022-11-19T20:22:41.190Z,100067.72
2022-11-19T20:27:37.624Z,100067.19
2022-11-19T20:32:34.010Z,100067.06
2022-11-19T20:37:30.375Z,100069.50
2022-11-19T20:42:45.645Z,100070.53
2022-11-19T20:47:42.029Z,100065.88
2022-11-19T20:52:38.393Z,100069.44
2022-11-19T20:57:34.820Z,100052.47
2022-11-19T21:02:31.268Z,100050.97
2022-11-19T21:07:27.716Z,100052.00
2022-11-19T21:12:24.107Z,100055.50
2022-11-19T21:17:20.614Z,100038.41
2022-11-19T21:22:16.993Z,100047.16
2022-11-19T21:27:13.379Z,100046.22
2022-11-19T21:32:09.853Z,100050.53
2022-11-19T21:37:06.263Z,100059.44
2022-11-19T21:42:02.714Z,100053.09
2022-11-19T21:46:59.124Z,100045.00
2022-11-19T21:51:55.578Z,100037.81
2022-11-19T21:56:52.140Z,100034.94
2022-11-19T22:01:54.421Z,100040.75
2022-11-19T22:06:51.268Z,100030.50
2022-11-19T22:11:47.663Z,100033.81
2022-11-19T22:16:44.357Z,100034.00
2022-11-19T22:21:40.765Z,100024.38
2022-11-19T22:26:37.189Z,100024.31
2022-11-19T22:31:33.596Z,100015.56
2022-11-19T22:36:31.185Z,100019.03
2022-11-19T22:41:27.649Z,100013.31
2022-11-19T22:46:24.230Z,100016.59
2022-11-19T22:51:23.161Z,100012.31
2022-11-19T22:56:20.488Z,100016.44
2022-11-19T23:01:21.900Z,100011.25
2022-11-19T23:06:18.631Z,100018.44
2022-11-19T23:11:37.026Z,100010.56
2022-11-19T23:16:33.820Z,100016.53
2022-11-19T23:21:30.424Z,100010.31
2022-11-19T23:26:29.517Z,100001.72
2022-11-19T23:31:29.017Z,100006.16
2022-11-19T23:36:28.453Z,99993.34
2022-11-19T23:41:24.874Z,99990.09
2022-11-19T23:46:23.840Z,99995.38
2022-11-19T23:51:22.068Z,99991.34
2022-11-19T23:56:20.382Z,99997.47
